Time;durP1;ratioP1;P1;durP2;ratioP2;P2;SDS_P1;SDS_P2;PMS_P1;PMS_P2;Temp;Humidity;BMP_temperature;BMP_pressure;BME280_temperature;BME280_humidity;BME280_pressure;Samples;Min_cycle;Max_cycle;Signal;HPM_P1;HPM_P2
2021/06/22 00:01:55;;;;;;;12.25;5.47;;;13.80;88.20;;;;;;5112893;28;20032;-81
2021/06/22 00:04:20;;;;;;;16.92;6.50;;;13.70;88.40;;;;;;5115172;28;20016;-83
2021/06/22 00:06:46;;;;;;;20.23;6.72;;;13.70;88.60;;;;;;5115081;28;20051;-81
2021/06/22 00:09:11;;;;;;;12.70;6.30;;;13.70;89.00;;;;;;5120379;28;20034;-81
2021/06/22 00:11:37;;;;;;;14.52;5.47;;;13.60;89.10;;;;;;5131914;27;20114;-82
2021/06/22 00:14:03;;;;;;;15.88;6.63;;;13.60;89.00;;;;;;5126237;28;20027;-80
2021/06/22 00:16:29;;;;;;;16.77;8.65;;;13.60;89.10;;;;;;5135495;27;20023;-82
2021/06/22 00:18:54;;;;;;;22.27;7.15;;;13.50;89.30;;;;;;5123191;28;20035;-82
2021/06/22 00:21:20;;;;;;;20.88;6.53;;;13.60;89.80;;;;;;5114834;28;20493;-82
2021/06/22 00:23:46;;;;;;;12.43;5.65;;;13.50;89.80;;;;;;5113300;28;20119;-81
2021/06/22 00:26:11;;;;;;;14.75;7.10;;;13.60;89.90;;;;;;5112457;28;20028;-81
2021/06/22 00:28:37;;;;;;;15.63;6.80;;;13.50;89.80;;;;;;5112794;28;20031;-81
2021/06/22 00:31:03;;;;;;;18.83;7.50;;;13.60;90.00;;;;;;5112829;28;20455;-82
2021/06/22 00:33:38;;;;;;;15.93;7.38;;;13.50;89.90;;;;;;5117126;28;20091;-81
2021/06/22 00:36:04;;;;;;;18.23;7.85;;;13.60;89.80;;;;;;5114281;28;20489;-81
2021/06/22 00:38:30;;;;;;;18.00;7.40;;;13.60;89.60;;;;;;5114097;28;20432;-82
2021/06/22 00:40:56;;;;;;;18.83;8.00;;;13.60;89.80;;;;;;5125663;28;20034;-81
2021/06/22 00:43:21;;;;;;;13.05;7.85;;;13.50;89.90;;;;;;5124411;28;20460;-80
2021/06/22 00:45:47;;;;;;;12.38;6.20;;;13.50;89.90;;;;;;5120083;28;20028;-81
2021/06/22 00:48:12;;;;;;;14.25;6.18;;;13.50;89.90;;;;;;5116670;28;20032;-81
2021/06/22 00:50:38;;;;;;;14.15;7.45;;;13.50;89.80;;;;;;5117193;28;20023;-81
2021/06/22 00:53:06;;;;;;;16.10;6.90;;;13.40;90.00;;;;;;5116900;28;20028;-81
2021/06/22 00:55:32;;;;;;;17.27;7.25;;;13.40;90.00;;;;;;5116803;28;20471;-81
2021/06/22 00:58:08;;;;;;;14.48;8.07;;;13.40;90.10;;;;;;5116398;28;20051;-79
2021/06/22 01:00:39;;;;;;;14.23;7.05;;;13.30;90.10;;;;;;5117306;28;20019;-81
2021/06/22 01:03:05;;;;;;;12.32;6.35;;;13.30;90.10;;;;;;5116085;28;20027;-80
2021/06/22 01:05:33;;;;;;;15.88;7.15;;;13.20;90.30;;;;;;5122623;28;20023;-82
2021/06/22 01:08:00;;;;;;;11.27;5.85;;;13.20;90.20;;;;;;5116228;28;20095;-82
2021/06/22 01:10:26;;;;;;;14.43;4.90;;;13.20;90.40;;;;;;5117369;28;20089;-82
2021/06/22 01:12:56;;;;;;;20.30;7.50;;;13.20;90.50;;;;;;5115879;28;20057;-82
2021/06/22 01:15:27;;;;;;;17.52;8.52;;;13.20;90.30;;;;;;5116648;28;20019;-82
2021/06/22 01:17:54;;;;;;;16.30;6.97;;;13.30;90.40;;;;;;5116133;28;20051;-79
2021/06/22 01:20:22;;;;;;;14.88;7.47;;;13.20;90.30;;;;;;5116174;28;20031;-82
2021/06/22 01:22:48;;;;;;;14.95;6.95;;;13.30;90.30;;;;;;5115893;28;20122;-81
2021/06/22 01:25:15;;;;;;;11.38;6.78;;;13.20;90.20;;;;;;5115995;28;20030;-83
2021/06/22 01:27:41;;;;;;;18.27;8.15;;;13.20;90.40;;;;;;5116010;28;20039;-81
2021/06/22 01:30:08;;;;;;;16.38;7.90;;;13.10;90.30;;;;;;5115999;28;20026;-81
2021/06/22 01:32:34;;;;;;;11.63;7.07;;;13.10;90.40;;;;;;5115841;28;20031;-81
2021/06/22 01:35:00;;;;;;;16.15;8.20;;;13.10;90.50;;;;;;5117199;28;20030;-80
2021/06/22 01:37:25;;;;;;;11.30;7.10;;;13.00;90.60;;;;;;5117546;28;20376;-80
2021/06/22 01:39:51;;;;;;;10.60;6.25;;;13.10;90.60;;;;;;5115893;28;20019;-80
2021/06/22 01:42:18;;;;;;;15.65;8.07;;;13.00;90.60;;;;;;5116736;28;20387;-81
2021/06/22 01:44:47;;;;;;;20.00;8.23;;;13.00;90.60;;;;;;5115638;28;20447;-80
2021/06/22 01:47:13;;;;;;;17.27;7.85;;;13.00;90.60;;;;;;5116359;28;20242;-80
2021/06/22 01:49:39;;;;;;;14.90;7.28;;;13.00;90.60;;;;;;5115355;28;20106;-80
2021/06/22 01:52:05;;;;;;;15.93;8.27;;;13.00;90.60;;;;;;5113853;28;20055;-81
2021/06/22 01:54:30;;;;;;;13.27;8.05;;;12.90;90.70;;;;;;5115277;28;20030;-81
2021/06/22 01:56:58;;;;;;;18.92;8.40;;;12.90;90.80;;;;;;5115834;28;20020;-81
2021/06/22 01:59:23;;;;;;;14.10;8.30;;;12.90;91.10;;;;;;5116001;28;20035;-81
2021/06/22 02:01:49;;;;;;;20.15;9.35;;;12.90;90.80;;;;;;5116280;28;20020;-81
2021/06/22 02:04:16;;;;;;;15.05;8.75;;;12.90;90.90;;;;;;5117017;28;20045;-81
2021/06/22 02:06:42;;;;;;;15.00;8.43;;;12.80;90.90;;;;;;5116996;28;20030;-81
2021/06/22 02:09:08;;;;;;;15.77;8.50;;;12.80;90.90;;;;;;5133003;28;20024;-82
2021/06/22 02:11:34;;;;;;;13.27;8.30;;;12.80;91.00;;;;;;5125310;28;20028;-81
2021/06/22 02:13:59;;;;;;;16.35;8.85;;;12.80;91.00;;;;;;5128669;28;20023;-80
2021/06/22 02:16:25;;;;;;;17.20;7.80;;;12.80;91.00;;;;;;5117319;28;20375;-81
2021/06/22 02:18:51;;;;;;;16.85;7.82;;;12.90;91.00;;;;;;5123608;28;20047;-80
2021/06/22 02:21:16;;;;;;;17.60;8.40;;;12.80;91.00;;;;;;5135205;28;20019;-79
2021/06/22 02:23:42;;;;;;;14.85;8.20;;;12.80;91.00;;;;;;5122686;28;20041;-81
2021/06/22 02:26:08;;;;;;;15.68;7.55;;;12.80;91.00;;;;;;5117075;28;20020;-81
2021/06/22 02:28:33;;;;;;;16.67;7.53;;;12.90;91.10;;;;;;5115865;28;20433;-81
2021/06/22 02:31:00;;;;;;;12.85;8.43;;;12.90;91.00;;;;;;5116351;28;20383;-81
2021/06/22 02:33:26;;;;;;;17.70;8.23;;;12.80;90.90;;;;;;5119768;28;20024;-81
2021/06/22 02:35:53;;;;;;;19.17;8.13;;;12.80;91.10;;;;;;5116706;28;20464;-81
2021/06/22 02:38:19;;;;;;;14.70;8.20;;;12.80;91.00;;;;;;5115127;28;20030;-82
2021/06/22 02:40:45;;;;;;;12.45;8.57;;;12.80;91.10;;;;;;5115540;28;20026;-82
2021/06/22 02:43:13;;;;;;;14.77;8.07;;;12.80;91.00;;;;;;5114339;28;20028;-80
2021/06/22 02:45:39;;;;;;;15.10;7.93;;;12.70;91.00;;;;;;5115110;28;20024;-80
2021/06/22 02:48:08;;;;;;;14.02;8.10;;;12.70;91.10;;;;;;5114741;28;20083;-80
2021/06/22 02:50:34;;;;;;;13.75;7.45;;;12.70;91.10;;;;;;5114804;28;20214;-80
2021/06/22 02:53:00;;;;;;;13.15;7.03;;;12.70;91.10;;;;;;5115312;28;20055;-81
2021/06/22 02:55:26;;;;;;;19.25;9.50;;;12.70;91.10;;;;;;5115044;28;20123;-81
2021/06/22 02:57:54;;;;;;;16.42;8.02;;;12.70;91.10;;;;;;5114308;28;20027;-81
2021/06/22 03:00:24;;;;;;;20.95;9.07;;;12.60;91.10;;;;;;5116236;28;20468;-82
2021/06/22 03:02:50;;;;;;;12.27;7.90;;;12.60;91.10;;;;;;5115129;28;20122;-81
2021/06/22 03:05:17;;;;;;;17.75;8.23;;;12.60;91.10;;;;;;5116301;28;20027;-80
2021/06/22 03:07:43;;;;;;;14.82;7.88;;;12.60;91.10;;;;;;5115085;28;20023;-81
2021/06/22 03:10:11;;;;;;;19.27;9.10;;;12.60;91.10;;;;;;5114971;28;20023;-81
2021/06/22 03:12:38;;;;;;;10.73;5.93;;;12.60;91.00;;;;;;5115081;28;20019;-79
2021/06/22 03:15:09;;;;;;;15.38;7.53;;;12.60;91.10;;;;;;5114680;28;20062;-80
2021/06/22 03:17:35;;;;;;;14.80;7.57;;;12.50;91.10;;;;;;5114624;28;20506;-81
2021/06/22 03:20:01;;;;;;;20.75;7.90;;;12.50;91.20;;;;;;5116005;28;20106;-81
2021/06/22 03:22:27;;;;;;;14.82;7.95;;;12.50;91.50;;;;;;5114375;28;20459;-81
2021/06/22 03:24:52;;;;;;;12.68;6.57;;;12.50;91.30;;;;;;5114504;28;20027;-82
2021/06/22 03:27:19;;;;;;;18.20;7.63;;;12.50;91.30;;;;;;5114450;28;20028;-82
2021/06/22 03:29:45;;;;;;;12.05;6.75;;;12.50;91.30;;;;;;5115144;28;20023;-81
2021/06/22 03:32:10;;;;;;;16.10;7.53;;;12.50;91.30;;;;;;5114876;28;20034;-82
2021/06/22 03:34:37;;;;;;;11.65;6.68;;;12.50;91.30;;;;;;5115551;28;20030;-82
2021/06/22 03:37:03;;;;;;;18.42;8.57;;;12.50;91.40;;;;;;5123829;28;20547;-83
2021/06/22 03:39:29;;;;;;;14.50;7.38;;;12.50;91.30;;;;;;5114715;28;20031;-83
2021/06/22 03:41:55;;;;;;;14.15;7.65;;;12.50;91.30;;;;;;5115352;28;20028;-83
2021/06/22 03:44:21;;;;;;;16.65;7.50;;;12.50;91.20;;;;;;5116240;28;20075;-84
2021/06/22 03:46:46;;;;;;;15.93;8.70;;;12.50;91.20;;;;;;5115926;28;20160;-84
2021/06/22 03:49:12;;;;;;;12.45;6.53;;;12.50;91.30;;;;;;5115721;28;20078;-84
2021/06/22 03:51:37;;;;;;;18.67;8.00;;;12.50;91.30;;;;;;5115875;28;20100;-85
2021/06/22 03:54:03;;;;;;;16.45;7.40;;;12.40;91.20;;;;;;5117902;28;20081;-84
2021/06/22 03:56:29;;;;;;;15.95;7.93;;;12.50;91.20;;;;;;5115886;28;20092;-85
2021/06/22 03:58:55;;;;;;;15.20;8.13;;;12.50;91.20;;;;;;5117096;28;20038;-86
2021/06/22 04:01:21;;;;;;;15.25;8.48;;;12.40;91.30;;;;;;5117217;28;20023;-84
2021/06/22 04:03:47;;;;;;;14.07;7.57;;;12.50;91.30;;;;;;5118292;28;20467;-84
2021/06/22 04:06:12;;;;;;;13.25;7.68;;;12.50;91.30;;;;;;5118411;28;20451;-84
2021/06/22 04:08:40;;;;;;;14.20;8.05;;;12.50;91.20;;;;;;5136713;27;20095;-84
2021/06/22 04:11:05;;;;;;;14.13;7.95;;;12.40;91.20;;;;;;5127430;28;20020;-83
2021/06/22 04:13:31;;;;;;;17.42;8.13;;;12.50;91.30;;;;;;5133335;27;20024;-85
2021/06/22 04:15:57;;;;;;;15.25;7.22;;;12.50;91.20;;;;;;5117292;28;20071;-85
2021/06/22 04:18:23;;;;;;;13.07;7.63;;;12.40;91.10;;;;;;5117365;28;20052;-86
2021/06/22 04:20:49;;;;;;;15.50;7.68;;;12.40;91.20;;;;;;5120385;28;20012;-85
2021/06/22 04:23:15;;;;;;;19.05;8.60;;;12.50;91.20;;;;;;5125996;28;20095;-85
2021/06/22 04:25:40;;;;;;;12.07;5.55;;;12.40;91.20;;;;;;5136098;27;20015;-86
2021/06/22 04:28:06;;;;;;;12.55;6.32;;;12.50;91.50;;;;;;5135281;27;20024;-84
2021/06/22 04:30:34;;;;;;;9.40;5.20;;;12.50;91.10;;;;;;5119834;28;20016;-85
2021/06/22 04:33:00;;;;;;;12.80;7.55;;;12.60;91.20;;;;;;5115423;28;20020;-85
2021/06/22 04:35:27;;;;;;;17.10;7.93;;;12.60;91.00;;;;;;5114906;28;20020;-85
2021/06/22 04:37:53;;;;;;;14.55;7.55;;;12.70;90.90;;;;;;5115691;28;20114;-86
2021/06/22 04:40:19;;;;;;;12.63;6.60;;;12.60;90.80;;;;;;5114386;28;20051;-85
2021/06/22 04:42:44;;;;;;;18.83;8.57;;;12.70;90.90;;;;;;5115065;28;20047;-83
2021/06/22 04:45:11;;;;;;;12.90;7.05;;;12.80;90.70;;;;;;5114808;28;20237;-84
2021/06/22 04:47:37;;;;;;;17.77;8.43;;;12.80;90.60;;;;;;5115514;28;20050;-84
2021/06/22 04:50:04;;;;;;;12.98;7.82;;;12.80;90.50;;;;;;5120652;28;20024;-84
2021/06/22 04:52:31;;;;;;;14.52;7.93;;;12.90;90.50;;;;;;5119580;28;20023;-86
2021/06/22 04:54:56;;;;;;;11.85;7.18;;;12.90;90.40;;;;;;5114230;28;20050;-84
2021/06/22 04:57:22;;;;;;;13.10;7.75;;;12.90;90.40;;;;;;5114350;28;20016;-85
2021/06/22 04:59:48;;;;;;;16.27;8.02;;;12.90;90.40;;;;;;5114583;28;20027;-85
2021/06/22 05:02:14;;;;;;;9.65;5.05;;;13.10;90.30;;;;;;5115101;28;20364;-83
2021/06/22 05:04:40;;;;;;;11.77;6.57;;;13.10;90.30;;;;;;5113483;28;20031;-83
2021/06/22 05:07:05;;;;;;;13.68;6.78;;;13.20;90.10;;;;;;5115173;28;20020;-83
2021/06/22 05:09:31;;;;;;;19.67;9.00;;;13.30;90.00;;;;;;5113925;28;20022;-86
2021/06/22 05:11:57;;;;;;;19.35;9.60;;;13.50;89.20;;;;;;5096880;28;20028;-85
2021/06/22 05:14:23;;;;;;;13.43;6.93;;;13.50;89.00;;;;;;5098333;28;20018;-86
2021/06/22 05:16:49;;;;;;;9.93;6.40;;;13.70;88.30;;;;;;5114282;28;21436;-85
2021/06/22 05:19:16;;;;;;;11.45;6.40;;;13.80;87.80;;;;;;5114373;28;20027;-86
2021/06/22 05:21:42;;;;;;;14.43;7.45;;;13.90;87.40;;;;;;5118917;28;20020;-86
2021/06/22 05:24:08;;;;;;;22.48;10.60;;;14.10;86.60;;;;;;5118136;28;20357;-86
2021/06/22 05:26:33;;;;;;;19.30;9.10;;;14.20;86.30;;;;;;5118552;28;20394;-85
2021/06/22 05:28:59;;;;;;;20.83;8.98;;;14.30;86.40;;;;;;5128320;28;20404;-84
2021/06/22 05:31:24;;;;;;;19.63;10.02;;;14.40;85.30;;;;;;5122072;28;20033;-85
2021/06/22 05:33:50;;;;;;;23.08;8.88;;;14.40;85.30;;;;;;5119531;28;20015;-83
2021/06/22 05:36:16;;;;;;;13.45;7.35;;;14.50;85.00;;;;;;5102304;28;20571;-85
2021/06/22 05:38:41;;;;;;;20.33;9.88;;;14.60;84.90;;;;;;5118412;28;20031;-83
2021/06/22 05:41:07;;;;;;;17.30;9.95;;;14.60;84.00;;;;;;5117176;28;20024;-85
2021/06/22 05:43:33;;;;;;;19.83;9.52;;;14.70;83.30;;;;;;5117494;28;20061;-85
2021/06/22 05:45:59;;;;;;;14.43;8.10;;;14.90;83.40;;;;;;5118255;28;20030;-84
2021/06/22 05:48:26;;;;;;;15.52;6.60;;;15.00;83.30;;;;;;5116528;28;20016;-83
2021/06/22 05:50:52;;;;;;;13.30;6.00;;;15.10;82.70;;;;;;5116620;28;20028;-85
2021/06/22 05:53:17;;;;;;;14.95;6.95;;;15.20;82.30;;;;;;5118480;28;20016;-85
2021/06/22 05:55:43;;;;;;;12.13;8.10;;;15.20;82.40;;;;;;5117126;28;20055;-84
2021/06/22 05:58:09;;;;;;;15.13;9.48;;;15.20;81.40;;;;;;5118522;28;20044;-84
2021/06/22 06:00:35;;;;;;;16.15;9.88;;;15.40;81.10;;;;;;5119063;28;20102;-85
2021/06/22 06:03:01;;;;;;;12.20;5.82;;;15.50;80.10;;;;;;5122987;28;20051;-82
2021/06/22 06:05:27;;;;;;;19.77;9.45;;;15.60;80.40;;;;;;5130669;28;20031;-83
2021/06/22 06:07:53;;;;;;;12.82;6.45;;;15.80;79.60;;;;;;5112319;28;20428;-84
2021/06/22 06:10:20;;;;;;;19.70;8.38;;;15.90;78.80;;;;;;5131245;27;20018;-82
2021/06/22 06:12:46;;;;;;;20.00;9.43;;;16.10;78.00;;;;;;5129927;28;20011;-82
2021/06/22 06:15:13;;;;;;;17.25;9.40;;;16.30;77.90;;;;;;5133611;28;20034;-85
2021/06/22 06:17:39;;;;;;;22.45;9.95;;;16.40;76.70;;;;;;5127368;28;20051;-85
2021/06/22 06:20:08;;;;;;;9.18;5.93;;;16.50;75.00;;;;;;5118253;28;20027;-84
2021/06/22 06:22:35;;;;;;;16.50;7.68;;;16.60;75.90;;;;;;5117714;28;20035;-86
2021/06/22 06:25:04;;;;;;;15.43;10.02;;;16.70;75.20;;;;;;5118127;28;20387;-83
2021/06/22 06:30:08;;;;;;;12.90;6.50;;;16.80;74.20;;;;;;5139037;27;20090;-85
2021/06/22 06:32:34;;;;;;;9.45;6.07;;;17.00;74.00;;;;;;5128541;28;20016;-84
2021/06/22 06:34:59;;;;;;;12.40;6.50;;;17.10;73.70;;;;;;5117747;28;20030;-82
2021/06/22 06:37:25;;;;;;;12.32;7.78;;;17.20;72.70;;;;;;5117250;28;20049;-84
2021/06/22 06:39:51;;;;;;;11.40;7.57;;;17.20;72.40;;;;;;5117486;28;20023;-84
2021/06/22 06:42:16;;;;;;;14.07;7.68;;;17.10;72.70;;;;;;5118683;28;20496;-82
2021/06/22 06:44:42;;;;;;;11.65;7.55;;;17.00;71.50;;;;;;5115845;28;20031;-83
2021/06/22 06:47:07;;;;;;;13.60;8.15;;;16.90;71.80;;;;;;5115625;28;20083;-82
2021/06/22 06:49:35;;;;;;;9.82;7.07;;;17.00;72.30;;;;;;5114999;28;20077;-84
2021/06/22 06:52:02;;;;;;;14.93;6.88;;;17.20;73.70;;;;;;5115294;28;20493;-83
2021/06/22 06:54:28;;;;;;;15.48;9.65;;;17.40;71.60;;;;;;5115424;28;20073;-83
2021/06/22 06:56:54;;;;;;;11.90;7.00;;;17.50;71.00;;;;;;5115869;28;20019;-83
2021/06/22 06:59:19;;;;;;;10.50;6.93;;;17.50;71.70;;;;;;5115492;28;20030;-82
2021/06/22 07:01:45;;;;;;;13.88;7.57;;;17.40;71.70;;;;;;5115182;28;20080;-84
2021/06/22 07:04:11;;;;;;;12.77;7.35;;;17.40;71.00;;;;;;5113739;28;20393;-82
2021/06/22 07:06:38;;;;;;;12.85;6.57;;;17.40;70.60;;;;;;5113385;28;20086;-84
2021/06/22 07:09:04;;;;;;;19.88;11.40;;;17.40;72.30;;;;;;5114092;28;20031;-84
2021/06/22 07:11:29;;;;;;;11.50;8.07;;;17.50;70.60;;;;;;5114496;28;20103;-82
2021/06/22 07:13:56;;;;;;;11.25;6.55;;;17.70;70.30;;;;;;5114268;28;20035;-82
2021/06/22 07:16:21;;;;;;;11.30;7.20;;;17.90;70.70;;;;;;5114529;28;20054;-84
2021/06/22 07:18:47;;;;;;;12.15;7.05;;;18.00;69.50;;;;;;5123767;28;20043;-82
2021/06/22 07:21:16;;;;;;;11.15;5.80;;;18.20;69.60;;;;;;5112471;28;20027;-83
2021/06/22 07:23:42;;;;;;;14.02;8.48;;;18.20;71.60;;;;;;5113284;28;20527;-81
2021/06/22 07:26:08;;;;;;;10.90;8.48;;;18.10;69.60;;;;;;5116322;28;20464;-81
2021/06/22 07:28:34;;;;;;;14.20;8.80;;;18.00;70.20;;;;;;5115108;28;20035;-85
2021/06/22 07:31:02;;;;;;;12.55;7.43;;;17.90;69.00;;;;;;5115194;28;20019;-83
2021/06/22 07:33:27;;;;;;;15.13;9.88;;;17.70;69.10;;;;;;5114676;28;20028;-83
2021/06/22 07:35:53;;;;;;;13.30;7.20;;;17.60;68.70;;;;;;5114996;28;20462;-82
2021/06/22 07:38:18;;;;;;;19.90;10.20;;;17.50;72.10;;;;;;5115259;28;20069;-83
2021/06/22 07:40:44;;;;;;;11.02;8.23;;;17.50;73.90;;;;;;5117035;28;20106;-82
2021/06/22 07:43:10;;;;;;;17.25;9.77;;;17.60;72.30;;;;;;5115815;28;20457;-84
2021/06/22 07:45:35;;;;;;;17.30;11.18;;;17.60;70.60;;;;;;5115897;28;20051;-84
2021/06/22 07:48:01;;;;;;;18.13;11.50;;;17.80;69.20;;;;;;5112305;28;20070;-81
2021/06/22 07:50:27;;;;;;;11.93;9.02;;;17.90;71.40;;;;;;5111743;28;20020;-83
2021/06/22 07:52:52;;;;;;;11.98;8.48;;;17.90;73.00;;;;;;5114853;28;20515;-83
2021/06/22 07:55:18;;;;;;;16.05;9.52;;;17.90;69.30;;;;;;5121129;28;20004;-84
2021/06/22 07:57:47;;;;;;;10.50;7.75;;;18.00;68.70;;;;;;5117042;28;20114;-83
2021/06/22 08:00:23;;;;;;;13.02;9.77;;;18.00;70.70;;;;;;5115760;28;20020;-81
2021/06/22 08:02:49;;;;;;;13.45;10.13;;;17.90;67.80;;;;;;5121180;28;20028;-80
2021/06/22 08:05:14;;;;;;;15.10;9.18;;;18.00;68.40;;;;;;5126373;28;20080;-80
2021/06/22 08:07:40;;;;;;;18.45;12.70;;;18.00;68.90;;;;;;5127768;28;20087;-83
2021/06/22 08:10:06;;;;;;;15.52;9.82;;;18.00;69.30;;;;;;5132884;28;20024;-81
2021/06/22 08:12:32;;;;;;;21.15;11.90;;;18.00;69.00;;;;;;5116047;28;20026;-81
2021/06/22 08:14:57;;;;;;;11.73;8.77;;;18.10;68.70;;;;;;5113880;28;20174;-82
2021/06/22 08:17:23;;;;;;;11.23;8.18;;;18.20;70.80;;;;;;5114893;28;20056;-82
2021/06/22 08:19:49;;;;;;;13.65;9.18;;;18.30;70.10;;;;;;5113876;28;20114;-82
2021/06/22 08:22:14;;;;;;;13.05;8.15;;;18.40;71.30;;;;;;5114553;28;20023;-82
2021/06/22 08:24:40;;;;;;;16.95;11.13;;;18.50;69.30;;;;;;5115281;28;20058;-82
2021/06/22 08:27:06;;;;;;;16.48;10.52;;;18.70;68.00;;;;;;5114606;28;20020;-81
2021/06/22 08:29:31;;;;;;;14.18;10.00;;;18.60;67.00;;;;;;5114822;28;20434;-82
2021/06/22 08:31:57;;;;;;;12.70;8.95;;;18.60;69.50;;;;;;5120669;28;20023;-79
2021/06/22 08:34:22;;;;;;;15.27;8.82;;;18.70;68.10;;;;;;5135414;28;20049;-81
2021/06/22 08:36:48;;;;;;;16.33;11.52;;;18.80;67.30;;;;;;5118810;28;20114;-82
2021/06/22 08:39:14;;;;;;;12.73;8.65;;;19.00;63.70;;;;;;5115180;28;20020;-80
2021/06/22 08:41:40;;;;;;;14.60;9.35;;;19.00;65.30;;;;;;5113294;28;20073;-80
2021/06/22 08:44:09;;;;;;;15.23;9.95;;;19.00;67.00;;;;;;5113907;28;20054;-80
2021/06/22 08:46:35;;;;;;;11.45;7.95;;;19.00;64.40;;;;;;5113470;28;20096;-80
2021/06/22 08:49:02;;;;;;;14.93;10.02;;;19.00;69.40;;;;;;5113284;28;20020;-80
2021/06/22 08:51:29;;;;;;;14.75;10.50;;;19.00;66.60;;;;;;5113505;28;20114;-80
2021/06/22 08:53:55;;;;;;;15.75;9.77;;;19.00;62.10;;;;;;5114588;28;20436;-80
2021/06/22 08:56:25;;;;;;;11.07;8.48;;;19.30;65.90;;;;;;5112867;28;20110;-80
2021/06/22 08:58:51;;;;;;;13.03;9.10;;;19.40;67.30;;;;;;5112907;28;20024;-80
2021/06/22 09:01:17;;;;;;;11.10;7.70;;;19.60;67.10;;;;;;5111290;28;20052;-79
2021/06/22 09:03:43;;;;;;;13.23;9.50;;;19.50;66.70;;;;;;5117231;28;20100;-80
2021/06/22 09:06:08;;;;;;;11.88;8.30;;;19.60;66.90;;;;;;5116133;28;20028;-79
2021/06/22 09:08:34;;;;;;;13.40;8.57;;;19.60;65.50;;;;;;5113840;28;20020;-80
2021/06/22 09:11:12;;;;;;;13.80;8.38;;;19.90;65.60;;;;;;5117023;28;20062;-80
2021/06/22 09:13:39;;;;;;;10.18;7.28;;;20.10;62.90;;;;;;5116198;28;20122;-80
2021/06/22 09:16:10;;;;;;;10.35;7.22;;;20.10;65.70;;;;;;5117541;28;20039;-80
2021/06/22 09:18:43;;;;;;;13.65;7.30;;;20.30;66.80;;;;;;5114958;28;20043;-79
2021/06/22 09:21:19;;;;;;;12.90;9.32;;;20.40;63.60;;;;;;5116774;28;20027;-79
2021/06/22 09:23:46;;;;;;;12.38;7.00;;;20.70;63.70;;;;;;5116759;28;20091;-79
2021/06/22 09:26:22;;;;;;;14.82;8.70;;;20.90;64.70;;;;;;5116601;28;20043;-79
2021/06/22 09:28:49;;;;;;;10.48;7.70;;;21.00;63.00;;;;;;5116279;28;20547;-79
2021/06/22 09:31:17;;;;;;;12.65;7.95;;;21.20;59.70;;;;;;5116459;28;20015;-78
2021/06/22 09:33:53;;;;;;;14.90;8.25;;;21.30;62.60;;;;;;5116574;28;20387;-77
2021/06/22 09:36:26;;;;;;;12.05;8.52;;;21.40;61.30;;;;;;5116245;28;20016;-78
2021/06/22 09:38:57;;;;;;;12.82;8.98;;;21.60;61.60;;;;;;5116124;28;20460;-80
2021/06/22 09:41:29;;;;;;;13.77;8.90;;;21.80;58.80;;;;;;5115820;28;20466;-80
2021/06/22 09:44:07;;;;;;;10.35;6.70;;;22.10;55.60;;;;;;5116334;28;20028;-78
2021/06/22 09:46:45;;;;;;;11.85;7.15;;;22.30;59.30;;;;;;5125748;28;20106;-79
2021/06/22 09:49:23;;;;;;;11.90;7.15;;;22.10;57.50;;;;;;5116398;28;20015;-79
2021/06/22 09:52:08;;;;;;;12.52;8.23;;;22.10;61.70;;;;;;5116823;28;20023;-79
2021/06/22 09:54:44;;;;;;;12.40;7.05;;;22.10;61.50;;;;;;5116081;28;20020;-79
2021/06/22 09:57:14;;;;;;;10.15;6.53;;;22.20;59.60;;;;;;5117486;28;20156;-78
2021/06/22 10:00:08;;;;;;;9.68;7.30;;;22.30;61.30;;;;;;5121402;28;20027;-78
2021/06/22 10:02:55;;;;;;;13.07;8.27;;;22.20;58.50;;;;;;5129016;28;20031;-78
2021/06/22 10:05:21;;;;;;;15.88;9.25;;;22.00;59.60;;;;;;5120465;28;20032;-78
2021/06/22 10:07:46;;;;;;;10.32;7.82;;;22.10;60.00;;;;;;5134771;28;20027;-78
2021/06/22 10:10:12;;;;;;;9.48;6.72;;;22.00;60.20;;;;;;5118830;28;20374;-79
2021/06/22 10:12:44;;;;;;;10.25;7.00;;;22.10;58.90;;;;;;5116217;28;20057;-79
2021/06/22 10:15:13;;;;;;;9.98;7.18;;;22.30;61.50;;;;;;5115709;28;20028;-78
2021/06/22 10:17:41;;;;;;;11.47;7.17;;;22.60;56.40;;;;;;5116599;28;20044;-79
2021/06/22 10:20:08;;;;;;;8.30;5.85;;;22.80;57.90;;;;;;5115725;28;20305;-78
2021/06/22 10:22:36;;;;;;;12.52;6.72;;;23.00;59.20;;;;;;5114890;28;20028;-78
2021/06/22 10:25:04;;;;;;;9.15;6.07;;;23.20;56.20;;;;;;5114702;28;20080;-77
2021/06/22 10:27:30;;;;;;;9.65;5.93;;;23.30;59.80;;;;;;5115157;28;20492;-77
2021/06/22 10:30:02;;;;;;;10.25;5.82;;;23.30;57.40;;;;;;5115079;28;20042;-77
2021/06/22 10:32:29;;;;;;;8.10;5.30;;;23.40;57.60;;;;;;5115453;28;20027;-78
2021/06/22 10:34:58;;;;;;;9.43;6.38;;;23.60;60.20;;;;;;5115776;28;20374;-78
2021/06/22 10:37:30;;;;;;;7.95;5.13;;;23.70;56.00;;;;;;5126129;28;20031;-78
2021/06/22 10:40:24;;;;;;;10.80;7.50;;;23.80;59.70;;;;;;5126883;28;20019;-79
2021/06/22 10:42:52;;;;;;;8.65;5.72;;;23.80;56.10;;;;;;5114457;28;20027;-77
2021/06/22 10:45:19;;;;;;;8.98;6.32;;;23.80;58.50;;;;;;5114769;28;20380;-78
2021/06/22 10:47:45;;;;;;;8.05;5.25;;;23.80;59.00;;;;;;5115936;28;20064;-79
2021/06/22 10:50:16;;;;;;;11.55;5.80;;;23.70;59.70;;;;;;5114312;28;20047;-78
2021/06/22 10:52:50;;;;;;;8.25;6.55;;;23.90;57.30;;;;;;5114518;28;20223;-77
2021/06/22 10:55:20;;;;;;;8.93;5.68;;;23.80;53.50;;;;;;5114356;28;20215;-78
2021/06/22 10:58:10;;;;;;;6.68;5.00;;;23.60;60.90;;;;;;5112417;28;20075;-78
2021/06/22 11:00:42;;;;;;;7.18;4.75;;;23.50;61.90;;;;;;5113704;28;20028;-78
2021/06/22 11:03:22;;;;;;;9.00;6.20;;;23.40;62.30;;;;;;5113477;28;20043;-77
2021/06/22 11:05:49;;;;;;;12.77;8.32;;;23.50;61.50;;;;;;5093399;28;20020;-82
2021/06/22 11:08:15;;;;;;;13.70;8.32;;;23.70;55.00;;;;;;5093246;28;20031;-77
2021/06/22 11:10:54;;;;;;;10.93;7.00;;;23.80;47.00;;;;;;5094700;28;20016;-77
2021/06/22 11:13:42;;;;;;;9.57;6.18;;;23.80;52.10;;;;;;5108993;28;20080;-77
2021/06/22 11:16:13;;;;;;;10.40;7.13;;;23.70;59.50;;;;;;5112796;28;20175;-77
2021/06/22 11:18:51;;;;;;;11.57;8.35;;;23.60;57.20;;;;;;5110738;28;20055;-77
2021/06/22 11:21:31;;;;;;;15.32;8.18;;;23.60;54.00;;;;;;5110868;28;20023;-79
2021/06/22 11:24:09;;;;;;;9.85;6.38;;;23.80;52.50;;;;;;5110055;28;20383;-78
2021/06/22 11:26:37;;;;;;;10.45;7.15;;;24.00;57.10;;;;;;5113827;28;20459;-77
2021/06/22 11:29:04;;;;;;;10.02;5.72;;;24.20;53.20;;;;;;5111198;28;20032;-79
2021/06/22 11:31:39;;;;;;;11.15;7.15;;;24.30;58.30;;;;;;5107833;28;20024;-77
2021/06/22 11:34:09;;;;;;;13.50;6.88;;;24.30;54.80;;;;;;5112993;28;20027;-77
2021/06/22 11:36:48;;;;;;;9.60;6.60;;;24.50;54.50;;;;;;5113386;28;20027;-78
2021/06/22 11:39:29;;;;;;;10.25;6.57;;;24.70;56.80;;;;;;5110837;28;20084;-78
2021/06/22 11:44:45;;;;;;;9.30;5.03;;;24.30;49.40;;;;;;5113584;28;20027;-78
2021/06/22 11:47:30;;;;;;;8.57;6.13;;;24.20;56.80;;;;;;5112535;28;20051;-77
2021/06/22 11:50:00;;;;;;;7.70;5.55;;;24.10;57.30;;;;;;5113770;28;20176;-77
2021/06/22 11:52:33;;;;;;;9.18;5.78;;;24.20;58.50;;;;;;5114194;28;20030;-77
2021/06/22 11:55:02;;;;;;;9.32;5.13;;;24.30;50.70;;;;;;5113018;28;20027;-77
2021/06/22 11:57:34;;;;;;;9.35;5.78;;;24.30;56.40;;;;;;5105694;28;20383;-77
2021/06/22 12:00:14;;;;;;;9.40;5.35;;;24.40;52.50;;;;;;5111810;28;20011;-77
2021/06/22 12:02:47;;;;;;;;;;;24.20;50.10;;;;;;5122221;28;20110;-77
2021/06/22 12:05:15;;;;;;;8.45;5.72;;;24.10;56.10;;;;;;5125275;28;19914;-79
2021/06/22 12:07:58;;;;;;;8.68;5.22;;;24.40;51.70;;;;;;5123015;28;20111;-78
2021/06/22 12:10:40;;;;;;;10.13;4.88;;;24.70;54.00;;;;;;5112465;28;20104;-78
2021/06/22 12:13:06;;;;;;;8.68;5.43;;;24.90;56.10;;;;;;5112783;28;20031;-78
2021/06/22 12:15:34;;;;;;;9.45;4.97;;;25.20;53.90;;;;;;5112362;28;20483;-77
2021/06/22 12:18:00;;;;;;;6.68;4.38;;;25.20;54.90;;;;;;5111985;28;20039;-78
2021/06/22 12:20:28;;;;;;;11.32;5.53;;;25.30;54.50;;;;;;5110892;28;20092;-78
2021/06/22 12:23:17;;;;;;;10.02;4.95;;;25.10;53.00;;;;;;5112411;28;20078;-78
2021/06/22 12:25:45;;;;;;;7.80;4.60;;;25.00;54.60;;;;;;5113813;28;20028;-78
2021/06/22 12:28:11;;;;;;;7.47;4.72;;;25.00;49.20;;;;;;5112505;28;20020;-77
2021/06/22 12:30:43;;;;;;;7.95;4.40;;;25.20;54.20;;;;;;5112003;28;20074;-78
2021/06/22 12:33:17;;;;;;;8.30;3.95;;;25.20;56.00;;;;;;5112619;28;20471;-78
2021/06/22 12:35:45;;;;;;;6.32;4.32;;;25.10;52.50;;;;;;5111945;28;20425;-78
2021/06/22 12:38:13;;;;;;;8.55;4.35;;;25.00;55.00;;;;;;5112893;28;20375;-77
2021/06/22 12:40:42;;;;;;;6.55;4.18;;;24.80;56.10;;;;;;5117445;28;20020;-77
2021/06/22 12:43:08;;;;;;;8.82;4.38;;;24.70;50.20;;;;;;5131591;28;20019;-77
2021/06/22 12:45:34;;;;;;;9.45;4.30;;;24.60;51.80;;;;;;5112010;28;20034;-77
2021/06/22 12:48:00;;;;;;;8.25;5.03;;;24.40;55.40;;;;;;5112173;28;20371;-78